createdAt,value
2022-12-08T00:02:32.269Z,3.53
2022-12-08T00:05:53.849Z,3.40
2022-12-08T00:09:14.781Z,3.57
2022-12-08T00:12:17.447Z,3.52
2022-12-08T00:15:19.735Z,3.43
2022-12-08T00:18:22.268Z,3.55
2022-12-08T00:21:24.579Z,3.49
2022-12-08T00:24:31.325Z,3.26
2022-12-08T00:27:33.598Z,3.40
2022-12-08T00:30:39.300Z,3.34
2022-12-08T00:33:41.553Z,3.24
2022-12-08T00:36:44.332Z,3.13
2022-12-08T00:39:46.548Z,3.01
2022-12-08T00:42:49.115Z,3.10
2022-12-08T00:45:51.407Z,3.17
2022-12-08T00:48:53.995Z,3.06
2022-12-08T00:51:56.639Z,3.18
2022-12-08T00:54:59.199Z,3.13
2022-12-08T00:58:01.585Z,2.99
2022-12-08T01:01:14.236Z,3.17
2022-12-08T01:04:18.332Z,3.21
2022-12-08T01:07:20.904Z,3.14
2022-12-08T01:10:23.153Z,3.14
2022-12-08T01:13:25.627Z,3.21
2022-12-08T01:16:30.465Z,3.16
2022-12-08T01:19:33.233Z,3.14
2022-12-08T01:22:36.170Z,3.15
2022-12-08T01:25:38.831Z,3.02
2022-12-08T01:28:42.331Z,3.15
2022-12-08T01:31:45.054Z,3.17
2022-12-08T01:34:47.322Z,3.20
2022-12-08T01:37:50.722Z,3.16
2022-12-08T01:40:52.972Z,3.03
2022-12-08T01:44:23.685Z,2.97
2022-12-08T01:47:30.567Z,3.00
2022-12-08T01:50:34.050Z,2.88
2022-12-08T01:53:36.957Z,2.72
2022-12-08T01:56:55.234Z,2.79
2022-12-08T02:00:07.092Z,2.69
2022-12-08T02:03:16.152Z,2.75
2022-12-08T02:06:19.656Z,2.73
2022-12-08T02:09:22.485Z,2.64
2022-12-08T02:12:24.894Z,2.84
2022-12-08T02:16:02.363Z,2.77
2022-12-08T02:19:32.364Z,2.73
2022-12-08T02:22:53.851Z,2.66
2022-12-08T02:26:23.895Z,2.52
2022-12-08T02:30:02.546Z,2.45
2022-12-08T02:33:26.521Z,2.34
2022-12-08T02:36:51.661Z,2.47
2022-12-08T02:39:56.929Z,2.49
2022-12-08T02:43:16.930Z,2.49
2022-12-08T02:46:24.749Z,2.53
2022-12-08T02:49:33.151Z,2.37
2022-12-08T02:52:40.701Z,2.58
2022-12-08T02:56:04.874Z,2.57
2022-12-08T02:59:32.402Z,2.65
2022-12-08T03:03:03.926Z,2.68
2022-12-08T03:06:37.027Z,2.65
2022-12-08T03:09:50.123Z,2.57
2022-12-08T03:13:15.794Z,2.38
2022-12-08T03:16:25.641Z,2.50
2022-12-08T03:19:33.840Z,2.38
2022-12-08T03:22:39.295Z,2.33
2022-12-08T03:25:49.531Z,2.19
2022-12-08T03:28:52.083Z,2.13
2022-12-08T03:32:01.236Z,2.32
2022-12-08T03:35:09.240Z,2.27
2022-12-08T03:38:15.584Z,2.20
2022-12-08T03:41:18.538Z,2.25
2022-12-08T03:44:20.742Z,2.36
2022-12-08T03:47:23.502Z,2.36
2022-12-08T03:50:26.303Z,2.42
2022-12-08T03:53:28.845Z,2.27
2022-12-08T03:56:36.971Z,2.49
2022-12-08T03:59:39.668Z,2.49
2022-12-08T04:02:42.048Z,2.57
2022-12-08T04:05:44.590Z,2.56
2022-12-08T04:08:46.973Z,2.59
2022-12-08T04:11:52.297Z,2.57
2022-12-08T04:14:54.536Z,2.66
2022-12-08T04:17:57.082Z,2.76
2022-12-08T04:20:59.304Z,2.53
2022-12-08T04:24:02.572Z,2.58
2022-12-08T04:27:04.866Z,2.66
2022-12-08T04:30:08.282Z,2.63
2022-12-08T04:33:10.887Z,2.56
2022-12-08T04:36:13.422Z,2.51
2022-12-08T04:39:15.683Z,2.51
2022-12-08T04:42:18.234Z,2.38
2022-12-08T04:45:20.514Z,2.35
2022-12-08T04:48:23.173Z,2.37
2022-12-08T04:51:27.328Z,2.35
2022-12-08T04:54:30.421Z,2.38
2022-12-08T04:57:32.769Z,2.43
2022-12-08T05:00:35.243Z,2.45
2022-12-08T05:03:37.734Z,2.42
2022-12-08T05:06:40.244Z,2.32
2022-12-08T05:09:42.604Z,2.37
2022-12-08T05:12:45.129Z,2.41
2022-12-08T05:15:47.447Z,2.39
2022-12-08T05:18:50.025Z,2.38
2022-12-08T05:21:52.261Z,2.25
2022-12-08T05:24:54.866Z,2.39
2022-12-08T05:28:17.472Z,2.45
2022-12-08T05:31:19.758Z,2.51
2022-12-08T05:34:22.147Z,2.40
2022-12-08T05:37:24.700Z,2.61
2022-12-08T05:40:27.152Z,2.54
2022-12-08T05:43:29.795Z,2.57
2022-12-08T05:46:32.235Z,2.47
2022-12-08T05:49:34.795Z,2.70
2022-12-08T05:52:37.134Z,2.78
2022-12-08T05:55:39.706Z,2.71
2022-12-08T05:58:42.414Z,2.75
2022-12-08T06:01:45.002Z,2.62
2022-12-08T06:04:47.563Z,2.49
2022-12-08T06:07:49.902Z,2.63
2022-12-08T06:10:52.519Z,2.68
2022-12-08T06:13:56.666Z,2.70
2022-12-08T06:16:59.215Z,2.65
2022-12-08T06:20:02.115Z,2.56
2022-12-08T06:23:04.894Z,2.51
2022-12-08T06:26:13.412Z,2.67
2022-12-08T06:29:15.956Z,2.62
2022-12-08T06:32:20.808Z,2.61
2022-12-08T06:35:26.998Z,2.66
2022-12-08T06:38:29.856Z,2.62
2022-12-08T06:41:32.442Z,2.85
2022-12-08T06:44:34.707Z,2.82
2022-12-08T06:47:37.408Z,2.79
2022-12-08T06:50:39.697Z,2.62
2022-12-08T06:53:43.293Z,2.79
2022-12-08T06:56:45.568Z,2.74
2022-12-08T06:59:48.138Z,2.72
2022-12-08T07:02:50.498Z,2.72
2022-12-08T07:06:03.243Z,2.84
2022-12-08T07:09:06.463Z,2.83
2022-12-08T07:12:08.988Z,2.74
2022-12-08T07:15:11.503Z,2.75
2022-12-08T07:18:14.090Z,2.80
2022-12-08T07:21:17.568Z,2.57
2022-12-08T07:24:20.173Z,2.69
2022-12-08T07:27:22.463Z,2.75
2022-12-08T07:30:25.024Z,2.71
2022-12-08T07:33:27.694Z,2.74
2022-12-08T07:36:30.310Z,2.76
2022-12-08T07:39:32.510Z,2.59
2022-12-08T07:42:35.437Z,2.80
2022-12-08T07:45:37.675Z,2.93
2022-12-08T07:48:40.740Z,2.94
2022-12-08T07:51:42.954Z,3.13
2022-12-08T07:54:45.586Z,3.09
2022-12-08T07:57:47.838Z,3.14
2022-12-08T08:00:50.489Z,3.32
2022-12-08T08:03:54.850Z,3.46
2022-12-08T08:06:57.337Z,3.52
2022-12-08T08:10:00.242Z,3.58
2022-12-08T08:13:02.792Z,3.71
2022-12-08T08:16:10.297Z,3.92
2022-12-08T08:19:12.656Z,3.88
2022-12-08T08:22:15.285Z,3.75
2022-12-08T08:25:18.959Z,3.87
2022-12-08T08:28:21.524Z,3.73
2022-12-08T08:31:27.268Z,3.86
2022-12-08T08:34:29.983Z,3.88
2022-12-08T08:37:32.359Z,3.77
2022-12-08T08:40:34.942Z,3.81
2022-12-08T08:43:38.678Z,3.84
2022-12-08T08:46:41.823Z,4.06
2022-12-08T08:49:44.123Z,3.97
2022-12-08T08:52:46.790Z,3.71
2022-12-08T08:55:50.158Z,3.92
2022-12-08T08:58:53.503Z,3.88
2022-12-08T09:01:56.278Z,4.13
2022-12-08T09:04:59.737Z,4.17
2022-12-08T09:08:02.229Z,4.26
2022-12-08T09:11:05.028Z,4.24
2022-12-08T09:14:07.472Z,4.25
2022-12-08T09:17:10.082Z,4.25
2022-12-08T09:20:12.611Z,4.22
2022-12-08T09:23:15.176Z,4.24
2022-12-08T09:26:17.624Z,4.28
2022-12-08T09:29:20.278Z,4.36
2022-12-08T09:32:22.656Z,4.48
2022-12-08T09:35:25.252Z,4.47
2022-12-08T09:38:27.560Z,4.51
2022-12-08T09:41:58.371Z,4.52
2022-12-08T09:45:12.107Z,4.42
2022-12-08T09:48:37.217Z,4.48
2022-12-08T09:51:42.395Z,4.52
2022-12-08T09:54:45.321Z,4.43
2022-12-08T09:57:57.914Z,4.50
2022-12-08T10:01:00.522Z,4.64
2022-12-08T10:04:03.242Z,4.73
2022-12-08T10:07:30.897Z,4.82
2022-12-08T10:10:57.965Z,5.05
2022-12-08T10:14:33.979Z,5.08
2022-12-08T10:17:42.606Z,5.08
2022-12-08T10:20:48.145Z,5.16
2022-12-08T10:24:02.071Z,5.15
2022-12-08T10:27:08.203Z,4.95
2022-12-08T10:30:16.584Z,4.93
2022-12-08T10:33:22.060Z,4.88
2022-12-08T10:36:54.381Z,4.85
2022-12-08T10:40:02.869Z,5.09
2022-12-08T10:43:07.045Z,5.23
2022-12-08T10:46:27.464Z,5.31
2022-12-08T10:49:32.438Z,5.16
2022-12-08T10:52:41.117Z,5.40
2022-12-08T10:55:46.441Z,5.51
2022-12-08T10:58:49.237Z,5.40
2022-12-08T11:01:54.583Z,5.31
2022-12-08T11:05:00.227Z,5.38
2022-12-08T11:08:04.893Z,5.32
2022-12-08T11:11:07.614Z,5.31
2022-12-08T11:14:18.382Z,5.18
2022-12-08T11:17:25.201Z,5.20
2022-12-08T11:20:28.313Z,5.39
2022-12-08T11:23:31.160Z,5.37
2022-12-08T11:26:37.011Z,5.20
2022-12-08T11:29:46.382Z,5.20
2022-12-08T11:32:52.999Z,5.24
2022-12-08T11:36:09.066Z,5.11
2022-12-08T11:39:13.208Z,5.18
2022-12-08T11:42:22.044Z,5.00
2022-12-08T11:45:30.088Z,5.16
2022-12-08T11:48:37.010Z,5.07
2022-12-08T11:51:46.986Z,5.02
2022-12-08T11:54:58.325Z,5.01
2022-12-08T11:58:18.820Z,5.10
2022-12-08T12:01:26.149Z,5.21
2022-12-08T12:04:37.128Z,5.18
2022-12-08T12:07:45.478Z,5.24
2022-12-08T12:11:10.305Z,5.24
2022-12-08T12:14:31.835Z,5.36
2022-12-08T12:18:05.141Z,5.39
2022-12-08T12:21:16.228Z,5.19
2022-12-08T12:24:50.310Z,5.37
2022-12-08T12:27:59.399Z,5.24
2022-12-08T12:31:08.537Z,5.29
2022-12-08T12:34:28.254Z,5.36
2022-12-08T12:37:45.833Z,5.30
2022-12-08T12:40:48.681Z,5.04
2022-12-08T12:44:08.293Z,5.06
2022-12-08T12:47:13.179Z,5.17
2022-12-08T12:50:45.905Z,5.04
2022-12-08T12:53:50.093Z,5.13
2022-12-08T12:56:57.124Z,5.08
2022-12-08T12:59:59.331Z,5.23
2022-12-08T13:03:02.022Z,5.34
2022-12-08T13:06:06.207Z,5.34
2022-12-08T13:09:31.760Z,5.38
2022-12-08T13:12:34.110Z,5.32
2022-12-08T13:15:48.521Z,5.18
2022-12-08T13:18:56.207Z,5.18
2022-12-08T13:22:00.226Z,5.13
2022-12-08T13:25:39.759Z,5.15
2022-12-08T13:29:01.412Z,5.00
2022-12-08T13:32:07.207Z,5.08
2022-12-08T13:35:11.980Z,5.03
2022-12-08T13:38:19.380Z,5.08
2022-12-08T13:41:34.645Z,5.04
2022-12-08T13:45:58.909Z,5.06
2022-12-08T13:59:19.450Z,5.01
2022-12-08T14:02:49.480Z,5.04
2022-12-08T14:09:21.166Z,4.98
2022-12-08T14:12:27.123Z,4.78
2022-12-08T14:15:37.232Z,4.76
2022-12-08T14:18:41.367Z,4.89
2022-12-08T14:21:51.212Z,4.85
2022-12-08T14:24:54.804Z,4.75
2022-12-08T14:28:01.254Z,4.85
2022-12-08T14:31:04.688Z,4.97
2022-12-08T14:34:07.146Z,4.90
2022-12-08T14:37:13.017Z,4.72
2022-12-08T14:40:23.032Z,4.61
2022-12-08T14:43:31.106Z,4.73
2022-12-08T14:46:33.942Z,4.67
2022-12-08T14:49:39.127Z,4.70
2022-12-08T14:52:44.420Z,4.65
2022-12-08T14:55:48.930Z,4.63
2022-12-08T14:59:05.830Z,4.58
2022-12-08T15:02:24.306Z,4.57
2022-12-08T15:05:30.887Z,4.58
2022-12-08T15:08:35.183Z,4.57
2022-12-08T15:11:37.456Z,4.48
2022-12-08T15:14:57.814Z,4.67
2022-12-08T15:18:20.871Z,4.50
2022-12-08T15:21:30.808Z,4.59
2022-12-08T15:24:35.585Z,4.58
2022-12-08T15:27:49.623Z,4.63
2022-12-08T15:30:53.765Z,4.66
2022-12-08T15:33:56.408Z,4.56
2022-12-08T15:36:58.727Z,4.72
2022-12-08T15:40:01.232Z,4.79
2022-12-08T15:43:03.636Z,4.81
2022-12-08T15:46:06.595Z,4.67
2022-12-08T15:49:17.765Z,4.57
2022-12-08T15:52:23.315Z,4.57
2022-12-08T15:55:25.600Z,4.54
2022-12-08T16:01:52.161Z,4.38
2022-12-08T16:12:09.554Z,4.42
2022-12-08T16:18:39.489Z,4.55
2022-12-08T16:25:21.635Z,4.48
2022-12-08T16:28:52.966Z,4.44
2022-12-08T16:31:47.569Z,4.51
2022-12-08T16:34:50.649Z,4.51
2022-12-08T16:37:55.653Z,4.60
2022-12-08T16:41:16.374Z,4.57
2022-12-08T16:44:18.898Z,4.34
2022-12-08T16:47:21.194Z,4.51
2022-12-08T16:50:44.864Z,4.42
2022-12-08T16:53:47.139Z,4.41
2022-12-08T16:56:49.715Z,4.50
2022-12-08T16:59:51.962Z,4.51
2022-12-08T17:02:55.373Z,4.47
2022-12-08T17:05:57.640Z,4.30
2022-12-08T17:09:00.277Z,4.20
2022-12-08T17:12:04.189Z,4.22
2022-12-08T17:15:09.249Z,4.25
2022-12-08T17:18:12.064Z,4.34
2022-12-08T17:21:17.021Z,4.27
2022-12-08T17:24:22.215Z,4.31
2022-12-08T17:27:25.425Z,4.21
2022-12-08T17:30:27.719Z,4.37
2022-12-08T17:33:30.233Z,4.37
2022-12-08T17:36:32.610Z,4.27
2022-12-08T17:39:35.269Z,4.34
2022-12-08T17:42:38.684Z,4.43
2022-12-08T17:45:46.882Z,4.29
2022-12-08T17:48:49.446Z,4.21
2022-12-08T17:51:54.554Z,4.19
2022-12-08T17:54:56.835Z,4.37
2022-12-08T17:57:59.398Z,4.41
2022-12-08T18:01:08.110Z,4.48
2022-12-08T18:04:11.870Z,4.48
2022-12-08T18:07:14.152Z,4.49
2022-12-08T18:10:18.379Z,4.44
2022-12-08T18:13:20.690Z,4.38
2022-12-08T18:16:25.844Z,4.41
2022-12-08T18:19:28.202Z,4.29
2022-12-08T18:22:30.710Z,4.37
2022-12-08T18:25:32.999Z,4.37
2022-12-08T18:28:36.633Z,4.43
2022-12-08T18:31:38.953Z,4.40
2022-12-08T18:34:41.796Z,4.27
2022-12-08T18:37:44.271Z,4.29
2022-12-08T18:40:46.829Z,4.27
2022-12-08T18:43:49.039Z,4.22
2022-12-08T18:46:51.576Z,4.48
2022-12-08T18:49:55.084Z,4.40
2022-12-08T18:52:57.752Z,4.48
2022-12-08T18:56:00.057Z,4.44
2022-12-08T18:59:08.535Z,4.51
2022-12-08T19:02:12.425Z,4.48
2022-12-08T19:05:15.282Z,4.36
2022-12-08T19:08:18.279Z,4.31
2022-12-08T19:11:26.739Z,4.46
2022-12-08T19:14:30.465Z,4.48
2022-12-08T19:17:33.186Z,4.32
2022-12-08T19:20:35.387Z,4.43
2022-12-08T19:23:38.930Z,4.48
2022-12-08T19:26:41.462Z,4.51
2022-12-08T19:29:44.051Z,4.39
2022-12-08T19:32:46.481Z,4.34
2022-12-08T19:35:52.733Z,4.42
2022-12-08T19:39:15.664Z,4.30
2022-12-08T19:42:39.888Z,4.41
2022-12-08T19:45:42.254Z,4.31
2022-12-08T19:48:45.012Z,4.28
2022-12-08T19:51:47.268Z,4.28
2022-12-08T19:54:49.874Z,4.25
2022-12-08T19:57:52.738Z,4.33
2022-12-08T20:00:55.559Z,4.30
2022-12-08T20:03:58.133Z,4.23
2022-12-08T20:07:00.624Z,4.38
2022-12-08T20:10:09.849Z,4.43
2022-12-08T20:13:30.989Z,4.36
2022-12-08T20:16:34.107Z,4.24
2022-12-08T20:19:36.603Z,4.27
2022-12-08T20:22:39.301Z,4.20
2022-12-08T20:25:44.059Z,4.30
2022-12-08T20:28:46.946Z,4.06
2022-12-08T20:31:49.378Z,4.15
2022-12-08T20:34:52.056Z,4.23
2022-12-08T20:37:54.384Z,4.15
2022-12-08T20:40:58.184Z,4.14
2022-12-08T20:44:00.458Z,4.19
2022-12-08T20:47:03.051Z,4.10
2022-12-08T20:50:07.037Z,3.96
2022-12-08T20:53:09.861Z,3.97
2022-12-08T20:56:17.473Z,4.03
2022-12-08T20:59:20.526Z,4.03
2022-12-08T21:02:22.958Z,4.04
2022-12-08T21:05:25.894Z,3.89
2022-12-08T21:08:28.522Z,4.07
2022-12-08T21:11:31.473Z,4.16
2022-12-08T21:14:34.008Z,4.12
2022-12-08T21:17:36.732Z,4.17
2022-12-08T21:20:39.134Z,4.26
2022-12-08T21:23:42.850Z,3.95
2022-12-08T21:26:45.298Z,3.90
2022-12-08T21:29:48.022Z,4.02
2022-12-08T21:32:50.611Z,3.99
2022-12-08T21:36:02.198Z,3.97
2022-12-08T21:39:11.268Z,3.92
2022-12-08T21:42:34.462Z,4.04
2022-12-08T21:45:37.184Z,3.90
2022-12-08T21:48:39.811Z,3.98
2022-12-08T21:51:42.810Z,4.03
2022-12-08T21:54:45.542Z,4.03
2022-12-08T21:57:47.887Z,4.11
2022-12-08T22:00:50.565Z,4.00
2022-12-08T22:03:53.748Z,4.02
2022-12-08T22:06:56.392Z,3.92
2022-12-08T22:09:59.345Z,4.05
2022-12-08T22:13:01.782Z,4.01
2022-12-08T22:16:07.594Z,4.06
2022-12-08T22:19:11.043Z,4.02
2022-12-08T22:22:13.716Z,3.88
2022-12-08T22:25:16.157Z,3.73
2022-12-08T22:28:18.697Z,3.90
2022-12-08T22:31:21.231Z,3.96
2022-12-08T22:34:23.927Z,4.04
2022-12-08T22:37:26.510Z,3.98
2022-12-08T22:40:29.468Z,4.01
2022-12-08T22:43:32.658Z,4.04
2022-12-08T22:46:35.886Z,3.98
2022-12-08T22:49:38.426Z,3.87
2022-12-08T22:52:41.098Z,3.94
2022-12-08T22:55:44.330Z,3.93
2022-12-08T22:58:47.424Z,4.01
2022-12-08T23:01:49.933Z,4.10
2022-12-08T23:04:56.356Z,3.94
2022-12-08T23:07:59.109Z,3.92
2022-12-08T23:11:01.731Z,4.02
2022-12-08T23:14:04.069Z,4.02
2022-12-08T23:17:07.005Z,4.00
2022-12-08T23:20:10.620Z,4.00
2022-12-08T23:23:13.664Z,3.89
2022-12-08T23:26:22.946Z,4.04
2022-12-08T23:29:25.727Z,4.07
2022-12-08T23:32:28.280Z,3.87
2022-12-08T23:35:31.317Z,3.94
2022-12-08T23:38:34.024Z,3.97
2022-12-08T23:41:37.065Z,3.95
2022-12-08T23:44:39.588Z,3.94
2022-12-08T23:47:42.257Z,3.95
2022-12-08T23:50:44.769Z,4.04
2022-12-08T23:53:47.457Z,3.99
2022-12-08T23:56:49.750Z,4.02
2022-12-08T23:59:52.463Z,3.98
